Fabian Garcia SC

2021-06-24 19:20:00

  • imperial
Date Time Air Temperature Relative Humidity Dewpoint Windchill Heat Index Wind Speed Wind Dir. Rain Solar Radiation Soil Temperature
2m 2m 3m 3m 10cm
US/Mountain F % F F F MPH deg in MJ/m^2 F
max avg avg
2021-06-23 19:25:00 94.5 20.5 47.9 94.5 94.5 3.3 5.8 3.2 188.0 204.8 0.00 0.0354639 93.1
2021-06-23 19:30:00 94.5 20.3 47.7 94.5 94.5 4.6 4.7 2.4 253.7 204.6 0.00 0.0295855 93.1
2021-06-23 19:35:00 94.0 21.6 48.9 94.0 94.0 3.3 7.1 4.3 199.4 211.0 0.00 0.0211783 93.0
2021-06-23 19:40:00 93.8 20.8 47.8 93.8 93.8 2.2 5.8 3.1 195.5 194.5 0.00 0.0198529 93.0
2021-06-23 19:45:00 93.4 21.7 48.5 93.4 93.4 0.0 3.1 1.8 192.4 198.7 0.00 0.0105593 92.9
2021-06-23 19:50:00 92.6 22.8 49.2 92.6 92.6 0.0 1.9 0.6 211.5 190.6 0.00 0.0065135 92.9
2021-06-23 19:55:00 92.0 23.2 49.2 92.0 92.0 0.0 1.5 0.1 207.7 189.4 0.00 0.0056963 92.9
2021-06-23 20:00:00 91.5 23.6 49.2 91.5 91.5 0.0 1.5 0.1 202.6 205.2 0.00 0.0048528 92.8
2021-06-23 20:05:00 91.1 24.3 49.6 91.1 91.1 0.0 0.0 0.0 188.4 0.0 0.00 0.0038419 92.8
2021-06-23 20:10:00 90.8 25.1 50.3 90.8 90.8 0.0 0.0 0.0 212.5 0.0 0.00 0.0024799 92.7
2021-06-23 20:15:00 90.4 24.5 49.2 90.4 90.4 0.0 0.0 0.0 172.9 0.0 0.00 0.0013560 92.6
2021-06-23 20:20:00 90.0 24.3 48.7 90.0 90.0 0.0 0.0 0.0 185.8 0.0 0.00 0.0008515 92.6
2021-06-23 20:25:00 89.9 26.0 50.5 89.9 89.9 0.0 0.0 0.0 183.2 0.0 0.00 0.0004742 92.5
2021-06-23 20:30:00 89.0 27.5 51.1 89.0 89.0 0.0 0.0 0.0 165.0 0.0 0.00 0.0002623 92.4
2021-06-23 20:35:00 88.5 27.5 50.8 88.5 88.5 0.0 0.0 0.0 163.0 0.0 0.00 0.0001090 92.4
2021-06-23 20:40:00 88.4 27.6 50.8 88.4 88.4 0.0 0.0 0.0 143.7 0.0 0.00 0.0000585 92.3
2021-06-23 20:45:00 88.4 27.4 50.6 88.4 88.4 0.0 0.0 0.0 153.1 0.0 0.00 0.0000605 92.2
2021-06-23 20:50:00 87.9 29.0 51.7 87.9 87.9 0.0 0.0 0.0 191.7 0.0 0.00 0.0000525 92.1
2021-06-23 20:55:00 87.1 30.0 51.9 87.1 87.1 0.0 0.0 0.0 189.1 0.0 0.00 0.0000464 92.1
2021-06-23 21:00:00 87.1 29.2 51.2 87.1 87.1 1.3 2.1 0.2 201.5 191.5 0.00 0.0000323 92.0
2021-06-23 21:05:00 86.4 30.7 51.9 86.4 86.4 0.0 1.7 0.4 166.6 225.0 0.00 0.0000121 92.0
2021-06-23 21:10:00 86.4 29.0 50.4 86.4 86.4 3.1 3.1 0.9 244.3 214.5 0.00 0.0000061 91.9
2021-06-23 21:15:00 87.2 27.8 50.0 87.2 87.2 0.0 3.5 1.8 223.2 238.1 0.00 0.0000040 91.8
2021-06-23 21:20:00 87.5 27.5 49.9 87.5 87.5 0.0 1.9 0.6 212.7 219.9 0.00 0.0000020 91.7
2021-06-23 21:25:00 87.7 27.1 49.6 87.7 87.7 0.0 1.7 0.2 207.6 227.3 0.00 0.0000020 91.7
2021-06-23 21:30:00 88.0 27.2 50.0 88.0 88.0 1.2 2.4 0.8 235.6 219.2 0.00 0.0000000 91.6
2021-06-23 21:35:00 87.7 27.1 49.7 87.7 87.7 2.2 2.6 0.7 224.6 227.5 0.00 0.0000000 91.6
2021-06-23 21:40:00 87.8 27.3 49.9 87.8 87.8 0.0 1.3 0.1 218.1 222.0 0.00 0.0000000 91.5
2021-06-23 21:45:00 87.8 27.6 50.3 87.8 87.8 0.0 1.5 0.1 228.0 214.2 0.00 0.0000000 91.4
2021-06-23 21:50:00 87.5 27.8 50.3 87.5 87.5 2.1 2.1 0.3 222.0 223.5 0.00 0.0000000 91.3
2021-06-23 21:55:00 88.4 26.3 49.5 88.4 88.4 4.4 7.8 4.3 213.5 232.7 0.00 0.0000000 91.3
2021-06-23 22:00:00 88.8 25.9 49.3 88.8 88.8 8.0 9.0 5.5 223.8 229.2 0.00 0.0000000 91.2
2021-06-23 22:05:00 89.5 25.1 49.2 89.5 89.5 13.9 18.7 9.3 236.0 241.4 0.00 0.0000000 91.1
2021-06-23 22:10:00 89.9 25.4 49.8 89.9 89.9 8.3 18.3 12.2 239.5 246.3 0.00 0.0000000 91.0
2021-06-23 22:15:00 89.1 25.7 49.5 89.1 89.1 7.1 12.6 9.6 260.0 240.6 0.00 0.0000000 91.0
2021-06-23 22:20:00 88.8 26.0 49.4 88.8 88.8 5.8 12.1 7.4 260.5 238.3 0.00 0.0000000 90.9
2021-06-23 22:25:00 88.4 26.6 49.8 88.4 88.4 10.8 12.6 7.9 235.7 239.6 0.00 0.0000000 90.9
2021-06-23 22:30:00 88.3 26.9 49.9 88.3 88.3 8.0 10.5 7.2 236.1 250.5 0.00 0.0000040 90.8
2021-06-23 22:35:00 87.8 27.7 50.4 87.8 87.8 5.1 10.8 6.3 214.3 237.8 0.00 0.0000020 90.7
2021-06-23 22:40:00 87.9 27.9 50.7 87.9 87.9 8.8 15.5 8.5 268.6 252.5 0.00 0.0000020 90.7
2021-06-23 22:45:00 87.8 28.4 51.0 87.8 87.8 7.6 11.7 8.1 260.7 253.7 0.00 0.0000020 90.6
2021-06-23 22:50:00 87.4 28.6 50.9 87.4 87.4 9.7 15.1 9.0 251.7 252.6 0.00 0.0000020 90.5
2021-06-23 22:55:00 87.0 29.9 51.8 87.0 87.0 7.6 12.6 7.2 284.7 249.5 0.00 0.0000020 90.5
2021-06-23 23:00:00 86.4 30.0 51.3 86.4 86.4 9.2 16.2 9.6 267.3 251.4 0.00 0.0000000 90.4
2021-06-23 23:05:00 86.4 30.4 51.7 86.4 86.4 10.8 15.1 9.5 265.8 255.3 0.00 0.0000020 90.4
2021-06-23 23:10:00 86.5 30.3 51.7 86.5 86.5 6.5 15.3 9.9 240.2 254.9 0.00 0.0000020 90.3
2021-06-23 23:15:00 86.2 30.0 51.2 86.2 86.2 8.0 14.9 9.2 271.1 258.3 0.00 0.0000000 90.2
2021-06-23 23:20:00 86.4 29.7 51.1 86.4 86.4 8.5 14.0 9.6 265.9 256.9 0.00 0.0000020 90.2
2021-06-23 23:25:00 86.3 29.6 50.8 86.3 86.3 6.5 11.7 7.1 303.5 260.5 0.00 0.0000000 90.1
2021-06-23 23:30:00 86.5 28.3 49.8 86.5 86.5 9.4 12.6 8.8 230.6 259.1 0.00 0.0000000 90.1
2021-06-23 23:35:00 87.1 27.3 49.3 87.1 87.1 12.8 18.0 9.7 288.6 260.9 0.00 0.0000000 90.0
2021-06-23 23:40:00 87.5 27.2 49.6 87.5 87.5 5.6 15.8 8.7 268.3 267.3 0.00 0.0000000 90.0
2021-06-23 23:45:00 87.3 27.4 49.7 87.3 87.3 8.7 14.2 8.7 238.1 257.8 0.00 0.0000000 89.9
2021-06-23 23:50:00 87.4 28.3 50.5 87.4 87.4 9.4 15.6 9.2 260.4 268.6 0.00 0.0000000 89.8
2021-06-23 23:55:00 86.5 28.9 50.4 86.5 86.5 10.6 14.7 9.9 270.2 271.7 0.00 0.0000000 89.8
2021-06-24 00:00:00 86.3 29.4 50.7 86.3 86.3 3.0 14.2 7.0 212.6 263.2 0.00 0.0000000 89.7
2021-06-24 00:05:00 86.1 29.6 50.7 86.1 86.1 8.8 15.1 8.5 296.2 277.0 0.00 0.0000020 89.7
2021-06-24 00:10:00 86.0 29.7 50.7 86.0 86.0 3.1 8.8 5.3 296.3 274.6 0.00 0.0000020 89.7
2021-06-24 00:15:00 86.3 29.3 50.5 86.3 86.3 4.2 7.6 4.4 258.3 283.0 0.00 0.0000000 89.6
2021-06-24 00:20:00 86.2 29.3 50.5 86.2 86.2 2.6 8.0 3.5 26.7 289.8 0.00 0.0000020 89.5
2021-06-24 00:25:00 86.0 29.0 50.1 86.0 86.0 4.6 17.6 6.7 326.8 312.7 0.00 0.0000000 89.5
2021-06-24 00:30:00 86.6 28.6 50.2 86.6 86.6 2.8 11.2 5.9 282.3 320.4 0.00 0.0000000 89.5
2021-06-24 00:35:00 86.6 28.4 50.0 86.6 86.6 1.3 13.3 4.6 292.2 299.4 0.00 0.0000000 89.4
2021-06-24 00:40:00 86.4 28.1 49.6 86.4 86.4 3.0 12.2 2.4 249.8 277.7 0.00 0.0000000 89.4
2021-06-24 00:45:00 86.8 27.8 49.6 86.8 86.8 0.0 5.8 2.3 207.4 293.0 0.00 0.0000000 89.3
2021-06-24 00:50:00 86.7 27.9 49.6 86.7 86.7 0.0 5.5 1.6 72.6 302.1 0.00 0.0000000 89.3
2021-06-24 00:55:00 87.1 27.1 49.2 87.1 87.1 7.4 11.2 7.7 321.7 344.2 0.00 0.0000000 89.2
2021-06-24 01:00:00 87.7 26.8 49.4 87.7 87.7 3.5 9.4 6.0 42.4 358.1 0.00 0.0000000 89.2
2021-06-24 01:05:00 87.5 26.6 49.0 87.5 87.5 5.8 9.9 4.4 336.7 353.9 0.00 0.0000000 89.2
2021-06-24 01:10:00 87.4 26.6 48.9 87.4 87.4 8.0 11.5 5.1 0.4 337.1 0.00 0.0000000 89.1
2021-06-24 01:15:00 87.2 26.8 49.0 87.2 87.2 9.9 9.9 3.4 310.9 334.9 0.00 0.0000000 89.1
2021-06-24 01:20:00 87.1 27.0 49.0 87.1 87.1 1.9 9.2 4.0 297.8 306.5 0.00 0.0000000 89.0
2021-06-24 01:25:00 87.2 27.0 49.1 87.2 87.2 6.9 6.9 2.7 323.6 331.6 0.00 0.0000000 89.0
2021-06-24 01:30:00 86.6 27.4 49.0 86.6 86.6 1.2 5.5 1.7 233.9 328.0 0.00 0.0000000 88.9
2021-06-24 01:35:00 86.4 28.2 49.7 86.4 86.4 0.0 1.7 0.1 241.8 317.0 0.00 0.0000000 88.9
2021-06-24 01:40:00 85.2 29.4 49.8 85.2 85.2 0.0 0.0 0.0 207.9 0.0 0.00 0.0000000 88.9
2021-06-24 01:45:00 84.7 29.4 49.3 84.7 84.7 0.0 0.0 0.0 29.2 0.0 0.00 0.0000000 88.8
2021-06-24 01:50:00 84.5 29.7 49.4 84.5 84.5 0.0 0.0 0.0 3.5 0.0 0.00 0.0000000 88.8
2021-06-24 01:55:00 84.5 29.2 49.0 84.5 84.5 0.0 1.5 0.1 301.5 324.6 0.00 0.0000000 88.7
2021-06-24 02:00:00 84.9 28.3 48.5 84.9 84.9 7.2 9.6 3.8 323.7 341.9 0.00 0.0000000 88.7
2021-06-24 02:05:00 85.5 28.6 49.3 85.5 85.5 3.0 10.3 5.1 18.1 13.4 0.00 0.0000000 88.6
2021-06-24 02:10:00 85.3 28.9 49.3 85.3 85.3 4.7 8.8 4.9 30.9 34.5 0.00 0.0000000 88.6
2021-06-24 02:15:00 84.7 29.2 49.1 84.7 84.7 6.2 6.5 4.3 55.6 33.0 0.00 0.0000000 88.6
2021-06-24 02:20:00 84.5 29.4 49.1 84.5 84.5 4.0 6.9 4.5 55.1 38.9 0.00 0.0000000 88.5
2021-06-24 02:25:00 84.2 29.7 49.2 84.2 84.2 1.9 7.2 4.4 17.0 24.1 0.00 0.0000000 88.5
2021-06-24 02:30:00 84.1 29.9 49.2 84.1 84.1 3.8 6.7 4.0 15.2 17.4 0.00 0.0000000 88.4
2021-06-24 02:35:00 83.7 30.0 49.0 83.7 83.7 6.2 8.0 4.9 16.1 15.3 0.00 0.0000000 88.4
2021-06-24 02:40:00 83.4 30.1 48.8 83.4 83.4 6.2 7.8 5.0 3.5 15.7 0.00 0.0000000 88.3
2021-06-24 02:45:00 83.6 29.7 48.6 83.6 83.6 9.2 10.1 7.5 40.3 11.7 0.00 0.0000000 88.3
2021-06-24 02:50:00 83.6 30.0 48.9 83.6 83.6 8.1 11.0 6.6 26.7 12.1 0.00 0.0000000 88.3
2021-06-24 02:55:00 83.3 30.0 48.7 83.3 83.3 7.1 10.6 7.2 22.3 8.2 0.00 0.0000000 88.2
2021-06-24 03:00:00 83.4 30.3 48.9 83.4 83.4 6.0 8.8 6.3 342.1 9.9 0.00 0.0000000 88.1
2021-06-24 03:05:00 83.1 30.4 48.9 83.1 83.1 5.1 9.0 5.6 11.3 4.6 0.00 0.0000000 88.1
2021-06-24 03:10:00 82.9 30.1 48.4 82.9 82.9 7.4 8.5 6.2 3.8 359.6 0.00 0.0000000 88.1
2021-06-24 03:15:00 82.7 30.6 48.6 82.7 82.7 4.9 7.4 5.1 4.7 1.8 0.00 0.0000000 88.0
2021-06-24 03:20:00 82.4 30.3 48.2 82.4 82.4 5.1 8.1 5.9 3.5 4.2 0.00 0.0000000 88.0
2021-06-24 03:25:00 82.1 30.4 48.0 82.1 82.1 5.8 8.0 5.9 5.2 0.6 0.00 0.0000000 87.9
2021-06-24 03:30:00 82.0 30.6 48.1 82.0 82.0 7.1 8.5 5.7 11.9 353.9 0.00 0.0000000 87.9
2021-06-24 03:35:00 82.0 30.6 48.1 82.0 82.0 5.8 8.7 6.3 340.9 342.2 0.00 0.0000000 87.8
2021-06-24 03:40:00 81.8 30.7 47.9 81.8 81.8 6.3 8.3 5.8 311.0 335.8 0.00 0.0000000 87.8
2021-06-24 03:45:00 81.9 30.8 48.1 81.9 81.9 1.0 6.9 3.8 9.6 328.6 0.00 0.0000000 87.7
2021-06-24 03:50:00 81.4 31.3 48.1 81.4 81.4 0.8 5.5 1.5 266.3 327.0 0.00 0.0000000 87.7
2021-06-24 03:55:00 80.9 32.3 48.5 80.9 80.9 0.0 2.1 0.3 207.4 286.8 0.00 0.0000000 87.7
2021-06-24 04:00:00 80.7 33.3 49.2 80.7 80.7 0.0 0.0 0.0 228.5 0.0 0.00 0.0000000 87.6
2021-06-24 04:05:00 79.9 34.2 49.2 79.9 79.9 0.0 0.0 0.0 222.3 0.0 0.00 0.0000000 87.5
2021-06-24 04:10:00 79.1 35.6 49.6 79.1 79.1 0.0 0.0 0.0 291.0 0.0 0.00 0.0000000 87.5
2021-06-24 04:15:00 78.5 34.8 48.4 78.5 78.5 0.8 5.1 0.4 220.8 299.0 0.00 0.0000081 87.4
2021-06-24 04:20:00 78.9 33.9 48.0 78.9 78.9 1.5 1.5 0.1 26.3 17.8 0.00 0.0000162 87.4
2021-06-24 04:25:00 79.1 33.6 48.1 79.1 79.1 0.0 0.8 0.1 235.3 347.8 0.00 0.0000101 87.4
2021-06-24 04:30:00 79.6 34.6 49.2 79.6 79.6 0.0 1.2 0.1 270.5 283.7 0.00 0.0000141 87.4
2021-06-24 04:35:00 78.9 34.5 48.6 78.9 78.9 0.0 0.0 0.0 242.1 0.0 0.00 0.0000081 87.3
2021-06-24 04:40:00 78.8 35.1 48.9 78.8 78.8 0.0 0.0 0.0 214.0 0.0 0.00 0.0000040 87.2
2021-06-24 04:45:00 78.6 35.0 48.6 78.6 78.6 0.0 0.0 0.0 14.3 0.0 0.00 0.0000202 87.2
2021-06-24 04:50:00 78.5 35.7 49.1 78.5 78.5 0.0 1.0 0.1 299.2 11.5 0.00 0.0000121 87.1
2021-06-24 04:55:00 78.0 36.6 49.3 78.0 78.0 0.0 2.8 0.7 258.5 0.0 0.00 0.0000242 87.1
2021-06-24 05:00:00 77.2 36.9 48.9 77.2 77.2 0.0 2.1 0.5 231.5 255.1 0.00 0.0000242 87.1
2021-06-24 05:05:00 77.1 37.8 49.5 77.1 77.1 1.3 1.9 0.4 234.7 244.1 0.00 0.0000323 87.0
2021-06-24 05:10:00 76.4 38.4 49.2 76.4 76.4 0.0 2.6 0.9 190.9 240.1 0.00 0.0000101 87.0
2021-06-24 05:15:00 76.6 38.4 49.4 76.6 76.6 0.0 0.0 0.0 163.1 0.0 0.00 0.0000121 86.9
2021-06-24 05:20:00 76.2 38.3 49.0 76.2 76.2 0.0 0.0 0.0 256.4 0.0 0.00 0.0000040 86.9
2021-06-24 05:25:00 76.2 39.6 49.8 76.2 76.2 0.0 0.0 0.0 247.2 0.0 0.00 0.0000000 86.8
2021-06-24 05:30:00 76.2 39.1 49.5 76.2 76.2 0.0 0.8 0.0 256.9 263.8 0.00 0.0000020 86.8
2021-06-24 05:35:00 76.6 37.9 49.0 76.6 76.6 0.0 1.7 0.5 249.2 264.6 0.00 0.0000020 86.7
2021-06-24 05:40:00 77.3 37.3 49.2 77.3 77.3 0.0 3.5 0.5 241.5 260.9 0.00 0.0000182 86.7
2021-06-24 05:45:00 77.1 37.3 49.0 77.1 77.1 1.7 2.6 0.6 275.7 252.2 0.00 0.0000707 86.6
2021-06-24 05:50:00 77.0 37.9 49.4 77.0 77.0 0.0 3.8 0.8 242.4 257.4 0.00 0.0001838 86.6
2021-06-24 05:55:00 76.3 38.6 49.3 76.3 76.3 0.0 1.7 0.2 227.1 247.1 0.00 0.0003817 86.5
2021-06-24 06:00:00 76.1 38.6 49.0 76.1 76.1 0.0 0.8 0.1 220.0 242.0 0.00 0.0006584 86.5
2021-06-24 06:05:00 76.0 38.7 49.1 76.0 76.0 0.0 0.0 0.0 164.5 0.0 0.00 0.0010603 86.4
2021-06-24 06:10:00 76.5 37.5 48.6 76.5 76.5 1.0 2.8 0.8 0.1 16.1 0.00 0.0015046 86.4
2021-06-24 06:15:00 76.8 38.0 49.3 76.8 76.8 0.0 3.0 0.9 256.7 349.7 0.00 0.0025023 86.3
2021-06-24 06:20:00 75.8 39.2 49.2 75.8 75.8 0.0 0.0 0.0 134.1 0.0 0.00 0.0039745 86.3
2021-06-24 06:25:00 75.4 41.6 50.5 75.4 75.4 0.0 0.0 0.0 184.4 0.0 0.00 0.0061880 86.2
2021-06-24 06:30:00 75.0 42.4 50.6 75.0 75.0 1.5 1.5 0.1 175.3 164.2 0.00 0.0106089 86.2
2021-06-24 06:35:00 74.7 43.4 51.0 74.7 74.7 0.0 1.5 0.4 172.9 154.3 0.00 0.0143837 86.1
2021-06-24 06:40:00 74.2 46.0 52.1 74.2 74.2 0.0 1.5 0.4 238.3 205.6 0.00 0.0183565 86.1
2021-06-24 06:45:00 74.0 46.8 52.3 74.0 74.0 0.0 0.0 0.0 146.1 0.0 0.00 0.0223598 86.0
2021-06-24 06:50:00 74.2 47.6 53.0 74.2 74.2 0.8 3.3 1.8 136.9 153.8 0.00 0.0275751 86.0
2021-06-24 06:55:00 74.0 47.5 52.8 74.0 74.0 1.9 1.9 0.2 205.8 177.9 0.00 0.0321289 85.9
2021-06-24 07:00:00 74.0 47.4 52.7 74.0 74.0 4.0 4.2 2.8 278.3 250.8 0.00 0.0363421 85.9
2021-06-24 07:05:00 74.4 45.3 51.8 74.4 74.4 2.1 4.4 3.0 258.2 256.9 0.00 0.0406435 85.9
2021-06-24 07:10:00 75.3 45.1 52.6 75.3 75.3 0.0 1.7 0.1 224.7 266.0 0.00 0.0451252 85.8
2021-06-24 07:15:00 76.5 42.2 51.8 76.5 76.5 0.0 0.0 0.0 124.8 0.0 0.00 0.0495976 85.8
2021-06-24 07:20:00 78.1 38.5 50.8 78.1 78.1 0.0 1.2 0.1 0.1 133.4 0.00 0.0540218 85.8
2021-06-24 07:25:00 79.3 40.9 53.5 79.3 79.3 1.0 2.6 0.3 257.4 270.2 0.00 0.0589393 85.7
2021-06-24 07:30:00 80.4 34.0 49.5 80.4 80.4 5.8 7.2 3.9 3.7 1.7 0.00 0.0635496 85.7
2021-06-24 07:35:00 81.3 33.2 49.6 81.3 81.3 7.4 8.8 5.7 1.0 355.3 0.00 0.0680254 85.7
2021-06-24 07:40:00 81.4 33.0 49.5 81.4 81.4 3.8 9.0 5.3 6.6 343.8 0.00 0.0727018 85.6
2021-06-24 07:45:00 81.2 32.8 49.2 81.2 81.2 6.2 8.8 6.3 337.2 352.1 0.00 0.0778663 85.6
2021-06-24 07:50:00 81.7 32.2 49.2 81.7 81.7 7.6 8.0 5.4 330.1 350.9 0.00 0.0831271 85.6
2021-06-24 07:55:00 81.7 32.9 49.7 81.7 81.7 8.1 9.6 6.8 1.4 350.6 0.00 0.0876562 85.6
2021-06-24 08:00:00 81.7 32.7 49.5 81.7 81.7 8.8 11.5 8.5 16.1 344.4 0.00 0.0927250 85.5
2021-06-24 08:05:00 82.5 32.6 50.2 82.5 82.5 3.7 9.0 6.1 1.3 347.9 0.00 0.0977704 85.5
2021-06-24 08:10:00 82.4 33.5 50.8 82.4 82.4 5.3 10.5 6.4 10.2 359.8 0.00 0.1024677 85.4
2021-06-24 08:15:00 82.1 33.1 50.3 82.1 82.1 6.0 9.4 6.7 6.8 350.6 0.00 0.1074553 85.4
2021-06-24 08:20:00 82.7 32.6 50.4 82.7 82.7 6.7 8.3 5.9 0.4 0.2 0.00 0.1121650 85.4
2021-06-24 08:25:00 82.4 32.4 49.9 82.4 82.4 6.7 9.9 7.0 332.0 345.6 0.00 0.1167548 85.4
2021-06-24 08:30:00 82.9 32.1 50.0 82.9 82.9 6.0 9.7 7.3 334.6 342.6 0.00 0.1209693 85.4
2021-06-24 08:35:00 83.3 31.3 49.7 83.3 83.3 1.9 8.3 4.9 319.6 325.6 0.00 0.1259642 85.4
2021-06-24 08:40:00 83.6 31.6 50.3 83.6 83.6 2.6 11.7 7.0 279.8 333.1 0.00 0.1309107 85.4
2021-06-24 08:45:00 84.3 30.4 49.9 84.3 84.3 1.7 7.8 3.2 12.0 309.8 0.00 0.1353719 85.4
2021-06-24 08:50:00 84.3 30.4 49.8 84.3 84.3 6.2 10.8 5.1 0.2 326.1 0.00 0.1399373 85.4
2021-06-24 08:55:00 84.8 30.7 50.6 84.8 84.8 3.3 9.4 5.6 309.5 338.2 0.00 0.1446928 85.3
2021-06-24 09:00:00 85.4 29.6 50.1 85.4 85.4 4.2 7.6 4.9 259.9 345.2 0.00 0.1496458 85.3
2021-06-24 09:05:00 85.7 29.4 50.2 85.7 85.7 4.9 9.6 5.2 3.2 334.2 0.00 0.1540144 85.4
2021-06-24 09:10:00 86.0 29.6 50.6 86.0 86.0 0.8 5.5 2.8 335.3 303.3 0.00 0.1589952 85.4
2021-06-24 09:15:00 85.7 28.8 49.6 85.7 85.7 6.7 8.8 4.4 35.2 335.7 0.00 0.1635070 85.4
2021-06-24 09:20:00 85.8 29.7 50.5 85.8 85.8 3.5 9.0 4.7 285.7 301.4 0.00 0.1684683 85.4
2021-06-24 09:25:00 86.2 28.7 50.0 86.2 86.2 0.0 8.1 3.7 178.1 316.7 0.00 0.1733969 85.4
2021-06-24 09:30:00 86.7 28.7 50.4 86.7 86.7 5.3 5.3 2.0 331.2 297.3 0.00 0.1775035 85.4
2021-06-24 09:35:00 86.1 29.3 50.4 86.1 86.1 3.3 8.8 6.3 0.8 351.5 0.00 0.1813941 85.4
2021-06-24 09:40:00 87.0 28.2 50.2 87.0 87.0 3.8 6.2 2.8 317.7 301.2 0.00 0.1857987 85.4
2021-06-24 09:45:00 87.3 28.1 50.3 87.3 87.3 6.5 9.7 6.2 333.5 339.7 0.00 0.1901531 85.5
2021-06-24 09:50:00 87.6 28.2 50.7 87.6 87.6 4.4 8.5 5.5 319.8 341.7 0.00 0.1940739 85.5
2021-06-24 09:55:00 88.1 27.6 50.5 88.1 88.1 4.6 7.6 5.3 292.0 325.7 0.00 0.1981117 85.5
2021-06-24 10:00:00 88.6 28.1 51.4 88.6 88.6 5.6 6.2 3.7 327.2 2.0 0.00 0.2025430 85.6
2021-06-24 10:05:00 88.0 27.9 50.7 88.0 88.0 4.2 8.8 5.5 316.0 6.6 0.00 0.2060532 85.6
2021-06-24 10:10:00 88.3 26.6 49.7 88.3 88.3 4.2 6.0 2.9 309.0 314.2 0.00 0.2099210 85.7
2021-06-24 10:15:00 88.6 27.6 51.0 88.6 88.6 1.9 4.7 2.5 304.8 263.0 0.00 0.2140284 85.7
2021-06-24 10:20:00 88.8 25.9 49.4 88.8 88.8 3.1 6.0 2.8 326.7 270.5 0.00 0.2182632 85.7
2021-06-24 10:25:00 89.3 27.0 51.0 89.3 89.3 3.8 5.5 1.8 335.8 285.2 0.00 0.2219707 85.8
2021-06-24 10:30:00 89.7 25.4 49.6 89.7 89.7 5.3 7.6 4.3 326.2 294.1 0.00 0.2252046 85.9
2021-06-24 10:35:00 89.9 25.3 49.7 89.9 89.9 5.1 6.9 3.8 0.1 343.7 0.00 0.2286441 86.0
2021-06-24 10:40:00 90.1 24.0 48.5 90.1 90.1 0.0 7.2 3.2 210.1 357.9 0.00 0.2319797 86.0
2021-06-24 10:45:00 90.7 24.2 49.2 90.7 90.7 5.3 6.5 3.4 12.1 1.0 0.00 0.2347025 86.1
2021-06-24 10:50:00 91.0 24.4 49.7 91.0 91.0 0.0 4.7 1.5 82.5 346.7 0.00 0.2382767 86.2
2021-06-24 10:55:00 90.9 25.0 50.3 90.9 90.9 0.8 4.9 1.8 229.3 253.3 0.00 0.2412664 86.3
2021-06-24 11:00:00 89.9 26.1 50.5 89.9 89.9 0.0 6.9 3.1 311.4 266.2 0.00 0.2439995 86.4
2021-06-24 11:05:00 91.3 24.0 49.5 91.3 91.3 4.0 4.6 0.6 188.4 229.2 0.00 0.2464743 86.5
2021-06-24 11:10:00 91.4 24.7 50.4 91.4 91.4 5.8 7.1 2.9 0.1 39.9 0.00 0.2494435 86.6
2021-06-24 11:15:00 92.2 23.0 49.0 92.2 92.2 4.2 7.8 5.5 32.0 0.8 0.00 0.2520158 86.7
2021-06-24 11:20:00 92.1 22.9 48.9 92.1 92.1 4.9 7.1 3.2 25.2 17.9 0.00 0.2545535 86.8
2021-06-24 11:25:00 92.2 22.4 48.4 92.2 92.2 2.4 6.5 4.0 327.4 12.9 0.00 0.2567833 86.9
2021-06-24 11:30:00 92.2 22.5 48.4 92.2 92.2 1.5 4.9 1.6 157.8 62.3 0.00 0.2593392 87.0
2021-06-24 11:35:00 93.3 22.5 49.4 93.3 93.3 0.8 3.5 0.6 56.1 83.8 0.00 0.2615394 87.2
2021-06-24 11:40:00 92.8 23.0 49.6 92.8 92.8 2.8 5.1 3.0 265.9 218.3 0.00 0.2635367 87.4
2021-06-24 11:45:00 93.1 24.5 51.6 93.1 93.1 2.8 8.3 3.5 298.4 259.6 0.00 0.2650326 87.5
2021-06-24 11:50:00 93.8 21.5 48.5 93.8 93.8 3.3 6.9 2.6 5.8 294.9 0.00 0.2682408 87.6
2021-06-24 11:55:00 93.6 21.5 48.5 93.6 93.6 4.7 7.8 4.1 319.4 346.1 0.00 0.2705078 87.8
2021-06-24 12:00:00 93.0 21.4 47.9 93.0 93.0 1.2 7.1 3.4 53.7 43.8 0.00 0.2718113 87.9
2021-06-24 12:05:00 93.5 21.2 48.0 93.5 93.5 1.0 6.5 3.6 316.8 322.1 0.00 0.2731675 88.1
2021-06-24 12:10:00 94.2 23.1 50.8 94.2 94.2 5.8 7.6 4.7 220.4 313.2 0.00 0.2742060 88.3
2021-06-24 12:15:00 93.4 22.2 49.1 93.4 93.4 3.7 7.4 3.2 41.8 339.2 0.00 0.2760006 88.4
2021-06-24 12:20:00 95.1 21.3 49.5 95.1 95.1 4.6 9.2 3.8 246.2 349.0 0.00 0.2777726 88.6
2021-06-24 12:25:00 95.4 20.7 48.9 95.4 95.4 6.5 9.0 4.8 0.3 335.2 0.00 0.2780280 88.7
2021-06-24 12:30:00 94.7 20.9 48.6 94.7 94.7 4.4 7.1 3.5 16.5 306.0 0.00 0.2783121 88.9
2021-06-24 12:35:00 94.0 21.3 48.5 94.0 94.0 0.0 5.5 2.9 113.1 259.9 0.00 0.2789937 89.1
2021-06-24 12:40:00 94.7 21.0 48.7 94.7 94.7 2.2 3.1 0.9 322.7 134.1 0.00 0.2779706 89.2
2021-06-24 12:45:00 95.0 20.6 48.4 95.0 95.0 7.2 8.8 5.0 329.8 352.7 0.00 0.2781516 89.4
2021-06-24 12:50:00 94.9 21.6 49.7 94.9 94.9 3.7 6.0 2.9 254.5 53.4 0.00 0.2794714 89.6
2021-06-24 12:55:00 95.0 21.7 49.9 95.0 95.0 4.9 8.3 5.3 274.6 255.6 0.00 0.2812136 89.8
2021-06-24 13:00:00 94.8 20.8 48.5 94.8 94.8 2.6 6.9 2.6 60.6 244.4 0.00 0.2818203 89.9
2021-06-24 13:05:00 95.9 20.2 48.7 95.9 95.9 6.5 7.2 2.4 200.9 344.0 0.00 0.2824866 90.1
2021-06-24 13:10:00 95.3 22.1 50.5 95.3 95.3 0.8 5.3 2.6 280.3 230.1 0.00 0.2826134 90.3
2021-06-24 13:15:00 96.1 22.3 51.5 96.1 96.1 2.2 7.8 3.3 248.1 229.2 0.00 0.2816845 90.5
2021-06-24 13:20:00 95.8 21.8 50.5 95.8 95.8 7.8 10.6 5.0 247.4 240.0 0.00 0.2814862 90.6
2021-06-24 13:25:00 96.4 20.4 49.4 96.4 96.4 8.8 9.0 4.1 249.5 287.1 0.00 0.2829559 90.8
2021-06-24 13:30:00 96.7 19.9 48.8 96.7 96.7 7.6 11.3 6.3 266.7 298.2 0.00 0.2834696 90.9
2021-06-24 13:35:00 95.9 21.3 50.1 95.9 95.9 6.5 7.4 5.0 196.4 225.9 0.00 0.2827241 91.1
2021-06-24 13:40:00 95.6 19.9 48.0 95.6 95.6 1.0 7.2 3.7 323.0 160.2 0.00 0.2817754 91.2
2021-06-24 13:45:00 96.2 20.1 48.7 96.2 96.2 5.5 8.7 3.4 316.5 261.6 0.00 0.2813023 91.3
2021-06-24 13:50:00 96.6 20.0 49.0 96.6 96.6 9.4 11.3 5.3 209.3 262.1 0.00 0.2808325 91.5
2021-06-24 13:55:00 95.6 20.0 48.2 95.6 95.6 1.5 15.1 5.5 188.7 218.7 0.00 0.2800253 91.6
2021-06-24 14:00:00 95.9 19.7 48.1 95.9 95.9 3.1 8.0 4.0 243.8 225.0 0.00 0.2786654 91.7
2021-06-24 14:05:00 97.1 19.9 49.3 97.1 97.1 6.7 9.6 4.1 197.9 239.4 0.00 0.2779830 91.9
2021-06-24 14:10:00 95.9 21.3 50.1 95.9 95.9 6.2 9.6 5.6 215.1 214.2 0.00 0.2771032 92.0
2021-06-24 14:15:00 96.2 21.5 50.6 96.2 96.2 11.2 11.3 8.5 254.8 230.0 0.00 0.2755838 92.1
2021-06-24 14:20:00 97.4 20.4 50.2 97.4 97.4 8.5 13.7 8.4 229.9 244.9 0.00 0.2740773 92.2
2021-06-24 14:25:00 96.3 20.1 48.8 96.3 96.3 5.8 9.6 6.6 225.2 211.3 0.00 0.2723850 92.4
2021-06-24 14:30:00 96.8 20.7 50.1 96.8 96.8 1.2 7.2 4.1 212.3 204.6 0.00 0.2711253 92.5
2021-06-24 14:35:00 97.0 20.4 49.8 97.0 97.0 5.3 10.3 6.3 239.7 239.6 0.00 0.2699075 92.6
2021-06-24 14:40:00 97.0 20.6 50.1 97.0 97.0 5.6 9.4 7.0 219.2 246.4 0.00 0.2680818 92.8
2021-06-24 14:45:00 97.4 19.5 49.0 97.4 97.4 3.8 9.7 6.6 195.2 244.7 0.00 0.2661262 92.9
2021-06-24 14:50:00 97.8 19.6 49.4 97.8 97.8 3.8 13.9 5.9 182.3 214.1 0.00 0.2637625 93.0
2021-06-24 14:55:00 97.6 19.6 49.2 97.6 97.6 5.8 13.1 7.3 249.1 261.1 0.00 0.2623963 93.1
2021-06-24 15:00:00 97.6 20.3 50.2 97.6 97.6 3.7 12.2 7.3 204.6 229.7 0.00 0.2609524 93.3
2021-06-24 15:05:00 96.3 21.8 51.0 96.3 96.3 6.0 14.0 6.5 207.8 219.9 0.00 0.1851270 93.4
2021-06-24 15:10:00 96.9 20.5 49.9 96.9 96.9 4.4 10.5 6.1 178.0 195.5 0.00 0.2552783 93.5
2021-06-24 15:15:00 97.3 22.2 52.3 97.3 97.3 7.8 8.7 4.1 217.8 204.6 0.00 0.2513944 93.6
2021-06-24 15:20:00 98.4 19.3 49.6 98.4 98.4 10.6 10.6 6.2 282.9 277.7 0.00 0.2512496 93.7
2021-06-24 15:25:00 95.9 21.3 50.1 95.9 95.9 7.6 11.5 7.0 282.5 272.0 0.00 0.0998917 93.8
2021-06-24 15:30:00 96.1 21.1 50.1 96.1 96.1 5.3 8.8 6.0 226.0 255.6 0.00 0.1602472 93.9
2021-06-24 15:35:00 97.0 21.9 51.7 97.0 97.0 8.7 13.1 7.8 210.8 229.0 0.00 0.2498232 94.0
2021-06-24 15:40:00 98.1 19.6 49.6 98.1 98.1 5.5 9.4 7.0 300.2 246.6 0.00 0.2444274 94.1
2021-06-24 15:45:00 97.7 20.2 50.1 97.7 97.7 8.3 15.3 9.1 257.3 247.7 0.00 0.2395146 94.2
2021-06-24 15:50:00 98.0 20.4 50.6 98.0 98.0 9.0 10.1 6.4 260.5 255.6 0.00 0.2336052 94.3
2021-06-24 15:55:00 98.7 21.0 52.0 98.7 98.7 8.3 10.5 6.4 262.7 282.7 0.00 0.2309079 94.3
2021-06-24 16:00:00 97.0 22.5 52.5 97.0 97.0 5.5 13.9 9.3 209.4 239.0 0.00 0.2265185 94.4
2021-06-24 16:05:00 97.4 21.8 52.0 97.4 97.4 10.5 13.9 9.6 208.7 234.1 0.00 0.2241164 94.5
2021-06-24 16:10:00 97.5 20.9 51.0 97.5 97.5 5.5 11.3 7.9 277.9 243.7 0.00 0.1781511 94.6
2021-06-24 16:15:00 96.7 21.4 50.9 96.7 96.7 4.4 12.2 7.2 238.0 245.8 0.00 0.1788988 94.6
2021-06-24 16:20:00 97.5 20.2 50.0 97.5 97.5 10.5 10.5 4.7 252.3 262.9 0.00 0.2139843 94.7
2021-06-24 16:25:00 97.9 20.1 50.1 97.9 97.9 8.5 12.8 8.5 288.2 267.3 0.00 0.2099160 94.7
2021-06-24 16:30:00 97.9 20.5 50.7 97.9 97.9 6.7 11.9 8.1 287.3 271.5 0.00 0.1523764 94.8
2021-06-24 16:35:00 96.2 21.5 50.6 96.2 96.2 4.7 9.0 5.8 258.1 264.6 0.00 0.0666909 94.8
2021-06-24 16:40:00 97.5 21.8 52.1 97.5 97.5 2.6 5.1 3.1 266.6 239.9 0.00 0.1988242 94.9
2021-06-24 16:45:00 97.4 21.9 52.1 97.4 97.4 9.4 10.3 5.9 217.1 233.2 0.00 0.1481770 94.9
2021-06-24 16:50:00 95.7 22.5 51.4 95.7 95.7 7.6 9.9 5.9 229.2 227.0 0.00 0.0450764 95.0
2021-06-24 16:55:00 96.5 22.7 52.2 96.5 96.5 5.6 8.7 5.2 247.0 231.3 0.00 0.1630591 95.0
2021-06-24 17:00:00 97.9 21.2 51.6 97.9 97.9 6.3 7.6 5.0 211.1 209.2 0.00 0.1900209 95.0
2021-06-24 17:05:00 97.6 21.3 51.5 97.6 97.6 8.7 11.2 7.0 270.9 233.8 0.00 0.1783818 95.1
2021-06-24 17:10:00 97.0 22.7 52.7 97.0 97.0 6.5 13.5 8.4 230.3 244.1 0.00 0.1707012 95.1
2021-06-24 17:15:00 97.5 21.8 52.0 97.5 97.5 6.2 14.2 9.6 237.4 249.2 0.00 0.1636561 95.1
2021-06-24 17:20:00 97.4 22.5 52.8 97.4 97.4 4.9 12.2 7.6 277.9 234.0 0.00 0.1569850 95.1
2021-06-24 17:25:00 97.5 22.8 53.3 97.5 97.5 5.3 11.9 6.6 254.6 253.0 0.00 0.1514739 95.1
2021-06-24 17:30:00 97.5 20.6 50.5 97.5 97.5 10.8 13.1 9.3 255.7 251.1 0.00 0.1468010 95.1
2021-06-24 17:35:00 97.3 22.6 52.8 97.3 97.3 9.2 12.6 9.4 261.1 259.7 0.00 0.1403793 95.1
2021-06-24 17:40:00 96.8 22.4 52.2 96.8 96.8 11.5 13.5 10.1 268.8 256.8 0.00 0.1362193 95.2
2021-06-24 17:45:00 97.2 22.1 52.2 97.2 97.2 3.0 8.5 5.4 272.7 272.1 0.00 0.1345858 95.2
2021-06-24 17:50:00 97.1 22.6 52.7 97.1 97.1 8.5 10.8 6.2 259.7 254.8 0.00 0.1288003 95.2
2021-06-24 17:55:00 97.4 21.8 51.9 97.4 97.4 7.8 13.1 9.0 276.0 268.0 0.00 0.1240484 95.2
2021-06-24 18:00:00 96.5 22.1 51.6 96.5 96.5 9.2 13.0 9.4 245.3 253.4 0.00 0.1161967 95.1
2021-06-24 18:05:00 96.8 22.6 52.4 96.8 96.8 6.9 14.0 8.1 286.1 262.2 0.00 0.1115612 95.1
2021-06-24 18:10:00 96.4 22.5 52.0 96.4 96.4 6.3 8.7 5.0 272.6 254.8 0.00 0.1099832 95.1
2021-06-24 18:15:00 96.6 22.4 52.0 96.6 96.6 7.4 12.6 7.4 276.4 266.7 0.00 0.1036782 95.1
2021-06-24 18:20:00 96.5 22.6 52.2 96.5 96.5 8.1 13.0 9.1 277.0 263.9 0.00 0.0980434 95.1
2021-06-24 18:25:00 96.7 21.6 51.1 96.7 96.7 7.8 12.2 7.1 234.5 260.6 0.00 0.0931257 95.1
2021-06-24 18:30:00 96.8 22.4 52.2 96.8 96.8 10.1 10.1 5.5 259.4 254.6 0.00 0.0873149 95.0
2021-06-24 18:35:00 96.9 22.0 51.7 96.9 96.9 7.2 11.9 6.9 31.2 267.0 0.00 0.0830277 95.1
2021-06-24 18:40:00 96.6 22.4 52.0 96.6 96.6 5.5 9.4 5.8 243.4 270.7 0.00 0.0779100 95.0
2021-06-24 18:45:00 96.0 22.7 51.9 96.0 96.0 9.9 12.6 8.8 222.7 261.9 0.00 0.0726763 95.0
2021-06-24 18:50:00 96.1 22.9 52.2 96.1 96.1 5.6 10.6 6.4 28.4 275.8 0.00 0.0675837 95.0
2021-06-24 18:55:00 96.2 22.7 52.1 96.2 96.2 5.1 8.3 5.7 267.9 268.4 0.00 0.0619532 94.9
2021-06-24 19:00:00 95.8 23.1 52.2 95.8 95.8 9.0 13.9 8.8 244.0 256.9 0.00 0.0571963 94.9
2021-06-24 19:05:00 95.3 23.5 52.3 95.3 95.3 6.3 11.9 8.3 269.4 257.8 0.00 0.0500816 94.9
2021-06-24 19:10:00 95.4 23.5 52.3 95.4 95.4 6.0 9.2 7.0 254.3 256.3 0.00 0.0378056 94.8
2021-06-24 19:15:00 95.0 23.0 51.4 95.0 95.0 9.6 12.6 8.1 271.9 262.0 0.00 0.0401741 94.8
2021-06-24 19:20:00 95.0 22.8 51.2 95.0 95.0 7.8 10.6 7.9 271.7 258.5 0.00 0.0389077 94.7

Data is courtesy of the NM Climate Center. DO NOT USE IN LEGAL PROCEEDINGS.